עמוד ראשי
METAR-TAF:

METAR-TAF

שדות תעופה :

Bella Coola, קולומביה הבריטית, קנדה

קו רוחב: 52-23N, קו אורך: 126-35W, גובה: 35מטר

תצפית מזג אוויר נוכחית

הדו"ח נערך לפני 10 שעות ו 0דקות, בשעה 01:00 UTC
רוח 16קשר מכיוון מערב עם משבים עד 21קשר
טמפרטורת 15 צלסיוס
לחות 67%
לחץ 1013 hPa
ראות: 24.1קילומטר
עננים פזורים בגובה 8000רגל
עננים בינוניים בגובה 10000רגל

METAR: CYBD 240100Z 27016G21KT 15SM SCT080 BKN100 15/09 A2992 RMK AC4AC3 LAST STFD OBS/NXT 241300Z/ SLP134

זמן: 04:00 (11:00 UTC)


TAF: חסר

תצפיות ותחזיות מזג אוויר לגבי יותר מ- 4,000 שדות תעופה ברחבי העולם. דוחות METAR ו- TAF.

התחנות הזמינות מסומנות בנקודות צהובות ואדומות על גבי המפה.

העבר את העכבר לנקודה הצבעונית על מנת לראות את שם התחנה.

לאחר מכן, לחץ כדי לראות את תוכן ואת תחזיות מזג האוויר.

כדי לשנות את המפה: לחץ על הכפתורים הירוקים עם הפלוס השחור כדי להתקרב; על הכפתור הירוק עם המקף כדי להתרחק; או בחיצים הירוקים למפות סמוכות.


METAR-TAF: